Time;durP1;ratioP1;P1;durP2;ratioP2;P2;SDS_P1;SDS_P2;PMS_P1;PMS_P2;Temp;Humidity;BMP_temperature;BMP_pressure;BME280_temperature;BME280_humidity;BME280_pressure;Samples;Min_cycle;Max_cycle;Signal;HPM_P1;HPM_P2
2023/07/20 00:02:25;;;;;;;10.68;2.78;;;11.90;99.90;;;;;;5088434;28;20594;-87
2023/07/20 00:04:58;;;;;;;7.03;2.65;;;12.00;99.90;;;;;;5088876;28;20237;-85
2023/07/20 00:07:33;;;;;;;6.18;2.33;;;12.10;99.90;;;;;;5084137;28;20588;-86
2023/07/20 00:10:08;;;;;;;7.00;2.58;;;12.10;99.90;;;;;;5089269;28;20199;-85
2023/07/20 00:12:43;;;;;;;8.85;2.42;;;12.20;99.90;;;;;;5088657;28;20247;-85
2023/07/20 00:15:15;;;;;;;7.80;2.60;;;12.30;99.90;;;;;;5088543;28;20206;-86
2023/07/20 00:17:46;;;;;;;5.88;2.30;;;12.30;99.90;;;;;;5084628;28;20200;-85
2023/07/20 00:20:21;;;;;;;6.65;2.40;;;12.40;99.90;;;;;;5089630;28;20607;-87
2023/07/20 00:22:52;;;;;;;8.57;2.38;;;12.50;99.90;;;;;;5090279;28;20692;-86
2023/07/20 00:25:24;;;;;;;5.00;1.90;;;12.50;99.90;;;;;;5092633;28;20195;-86
2023/07/20 00:27:57;;;;;;;4.88;1.77;;;12.60;99.90;;;;;;5097857;28;20263;-86
2023/07/20 00:30:28;;;;;;;5.20;1.80;;;12.70;99.90;;;;;;5091775;28;20199;-88
2023/07/20 00:32:59;;;;;;;8.70;2.70;;;12.70;99.90;;;;;;5089341;28;20203;-85
2023/07/20 00:35:34;;;;;;;4.45;1.85;;;12.80;99.90;;;;;;5089657;28;20603;-89
2023/07/20 00:38:06;;;;;;;6.53;1.92;;;13.00;99.90;;;;;;5090196;28;20191;-89
2023/07/20 00:40:41;;;;;;;6.90;1.85;;;13.10;99.90;;;;;;5091445;28;20944;-90
2023/07/20 00:43:13;;;;;;;7.30;1.80;;;13.20;99.90;;;;;;5072801;28;20740;-88
2023/07/20 00:45:46;;;;;;;7.38;1.75;;;13.30;99.90;;;;;;5072687;28;20215;-88
2023/07/20 00:48:18;;;;;;;7.32;1.80;;;13.50;99.90;;;;;;5081712;28;20226;-89
2023/07/20 00:50:54;;;;;;;5.20;1.83;;;13.70;99.90;;;;;;5092871;28;20264;-89
2023/07/20 00:53:27;;;;;;;8.00;1.98;;;13.80;99.90;;;;;;5092970;28;20681;-87
2023/07/20 00:55:58;;;;;;;5.90;1.83;;;13.90;99.90;;;;;;5089809;28;20618;-86
2023/07/20 00:58:29;;;;;;;4.97;1.58;;;14.00;99.90;;;;;;5076446;28;20219;-87
2023/07/20 01:01:01;;;;;;;6.25;1.70;;;14.20;99.90;;;;;;5076400;28;20195;-87
2023/07/20 01:03:32;;;;;;;8.00;1.90;;;14.30;99.90;;;;;;5074746;28;20196;-86
2023/07/20 01:06:17;;;;;;;6.10;1.88;;;14.40;99.90;;;;;;5085484;28;20207;-88
2023/07/20 01:08:58;;;;;;;6.97;1.55;;;14.40;99.90;;;;;;5086082;28;20200;-87
2023/07/20 01:11:39;;;;;;;4.10;1.38;;;14.70;99.90;;;;;;5075175;28;20210;-86
2023/07/20 01:14:11;;;;;;;3.55;1.02;;;14.80;99.90;;;;;;5095317;28;20199;-88
2023/07/20 01:16:44;;;;;;;4.60;1.20;;;15.00;99.90;;;;;;5091939;28;20215;-87
2023/07/20 01:19:16;;;;;;;2.78;1.10;;;15.20;99.90;;;;;;5071790;28;20196;-87
2023/07/20 01:21:56;;;;;;;2.08;0.80;;;15.30;99.90;;;;;;5086707;28;20202;-88
2023/07/20 01:25:00;;;;;;;3.88;0.82;;;15.50;99.90;;;;;;5091458;28;20199;-87
2023/07/20 01:27:57;;;;;;;2.63;0.50;;;15.60;99.90;;;;;;5079704;28;20223;-86
2023/07/20 01:31:02;;;;;;;1.80;0.70;;;15.70;99.90;;;;;;5091850;28;20874;-87
2023/07/20 01:33:36;;;;;;;2.83;0.80;;;15.90;99.50;;;;;;5084882;28;20198;-89
2023/07/20 01:36:08;;;;;;;1.90;0.73;;;16.00;98.80;;;;;;5087473;28;20222;-86
2023/07/20 01:38:40;;;;;;;2.53;0.63;;;16.10;97.60;;;;;;5071047;28;20200;-85
2023/07/20 01:41:11;;;;;;;1.65;0.68;;;16.20;96.50;;;;;;5087313;28;20206;-85
2023/07/20 01:43:43;;;;;;;2.38;0.68;;;16.40;95.70;;;;;;5085372;28;20582;-85
2023/07/20 01:46:14;;;;;;;3.53;0.60;;;16.50;95.90;;;;;;5093162;28;20507;-86
2023/07/20 01:48:47;;;;;;;2.45;0.45;;;16.60;93.40;;;;;;5083355;28;20267;-86
2023/07/20 01:51:18;;;;;;;1.98;0.60;;;16.50;92.40;;;;;;5077341;28;20665;-84
2023/07/20 01:53:50;;;;;;;1.63;0.40;;;16.60;90.50;;;;;;5096559;28;20588;-84
2023/07/20 01:56:21;;;;;;;1.58;0.40;;;16.60;85.00;;;;;;5078860;28;20240;-86
2023/07/20 01:58:52;;;;;;;0.60;0.47;;;16.60;81.70;;;;;;5092270;28;20222;-85
2023/07/20 02:01:23;;;;;;;1.05;0.40;;;16.60;79.40;;;;;;5096665;28;20195;-86
2023/07/20 02:03:56;;;;;;;2.65;0.65;;;16.70;79.30;;;;;;5092870;28;20191;-86
2023/07/20 02:06:27;;;;;;;1.15;0.43;;;16.70;77.30;;;;;;5076616;28;20216;-85
2023/07/20 02:08:58;;;;;;;1.80;0.70;;;16.80;78.80;;;;;;5085830;28;20294;-83
2023/07/20 02:11:30;;;;;;;2.33;0.80;;;16.90;78.90;;;;;;5073534;28;20195;-85
2023/07/20 02:14:01;;;;;;;2.03;0.40;;;17.00;78.00;;;;;;5070901;28;20286;-85
2023/07/20 02:16:32;;;;;;;3.10;0.70;;;17.00;76.90;;;;;;5086090;28;20203;-87
2023/07/20 02:19:06;;;;;;;2.58;0.63;;;17.10;76.10;;;;;;5088790;28;20219;-85
2023/07/20 02:21:38;;;;;;;1.63;0.50;;;17.10;76.90;;;;;;5086483;28;20274;-86
2023/07/20 02:24:10;;;;;;;1.33;0.50;;;17.20;76.40;;;;;;5091306;28;20200;-85
2023/07/20 02:26:41;;;;;;;2.67;0.70;;;17.30;76.90;;;;;;5104952;28;20681;-86
2023/07/20 02:29:12;;;;;;;1.88;0.60;;;17.30;75.50;;;;;;5106507;28;20190;-86
2023/07/20 02:31:44;;;;;;;1.95;0.40;;;17.40;74.90;;;;;;5081444;28;20188;-86
2023/07/20 02:34:17;;;;;;;1.73;0.50;;;17.50;73.90;;;;;;5091810;28;20242;-85
2023/07/20 02:36:48;;;;;;;1.98;0.55;;;17.50;72.90;;;;;;5088398;28;20666;-84
2023/07/20 02:39:19;;;;;;;1.02;0.57;;;17.50;73.20;;;;;;5075254;28;20199;-84
2023/07/20 02:41:50;;;;;;;3.30;0.50;;;17.60;74.30;;;;;;5090784;28;20195;-87
2023/07/20 02:44:21;;;;;;;2.10;0.70;;;17.70;73.60;;;;;;5090834;28;20194;-85
2023/07/20 02:46:53;;;;;;;4.68;0.60;;;17.80;73.00;;;;;;5076355;28;20702;-85
2023/07/20 02:49:26;;;;;;;1.83;0.43;;;17.70;73.50;;;;;;5085358;28;20242;-85
2023/07/20 02:51:57;;;;;;;2.58;0.60;;;17.70;74.30;;;;;;5082986;28;20223;-85
2023/07/20 02:54:29;;;;;;;1.17;0.50;;;17.90;73.10;;;;;;5091533;28;20235;-85
2023/07/20 02:57:01;;;;;;;2.47;0.60;;;17.80;72.60;;;;;;5091139;28;20260;-84
2023/07/20 02:59:32;;;;;;;2.03;0.60;;;17.90;72.20;;;;;;5074785;28;20211;-85
2023/07/20 03:02:03;;;;;;;1.38;0.60;;;17.80;73.20;;;;;;5080749;28;20192;-86
2023/07/20 03:04:37;;;;;;;1.35;0.57;;;17.90;73.50;;;;;;5085169;28;20246;-85
2023/07/20 03:07:10;;;;;;;2.15;0.60;;;17.90;71.80;;;;;;5080838;28;20301;-85
2023/07/20 03:09:41;;;;;;;0.70;0.40;;;18.00;73.30;;;;;;5076257;28;20196;-84
2023/07/20 03:12:14;;;;;;;2.13;0.57;;;18.00;72.20;;;;;;5077048;28;20206;-86
2023/07/20 03:14:46;;;;;;;3.75;0.70;;;18.00;72.50;;;;;;5080583;28;20202;-86
2023/07/20 03:17:17;;;;;;;1.88;0.70;;;18.10;73.40;;;;;;5094765;28;20202;-84
2023/07/20 03:19:50;;;;;;;2.15;0.77;;;18.20;70.80;;;;;;5094217;28;20730;-83
2023/07/20 03:22:21;;;;;;;1.83;0.68;;;18.20;72.60;;;;;;5082272;28;20672;-85
2023/07/20 03:24:53;;;;;;;1.48;0.50;;;18.20;72.90;;;;;;5074751;28;20226;-86
2023/07/20 03:27:24;;;;;;;4.05;0.88;;;18.20;72.90;;;;;;5073547;28;20228;-80
2023/07/20 03:29:55;;;;;;;4.90;0.68;;;18.30;73.70;;;;;;5074309;28;20220;-86
2023/07/20 03:32:26;;;;;;;1.85;0.60;;;18.30;72.50;;;;;;5090684;28;20540;-85
2023/07/20 03:35:01;;;;;;;1.65;0.52;;;18.30;71.30;;;;;;5073182;28;20192;-84
2023/07/20 03:37:34;;;;;;;1.90;0.50;;;18.20;73.80;;;;;;5073435;28;20697;-84
2023/07/20 03:40:07;;;;;;;1.55;0.60;;;18.20;74.40;;;;;;5105992;28;20697;-85
2023/07/20 03:42:38;;;;;;;1.70;0.70;;;18.30;75.30;;;;;;5104373;28;20218;-85
2023/07/20 03:45:10;;;;;;;3.05;0.90;;;18.20;74.30;;;;;;5101763;28;20195;-84
2023/07/20 03:47:41;;;;;;;1.90;0.70;;;18.00;75.60;;;;;;5085026;28;20235;-85
2023/07/20 03:50:14;;;;;;;1.75;0.60;;;17.90;75.90;;;;;;5079950;28;20215;-86
2023/07/20 03:52:46;;;;;;;2.08;0.65;;;18.00;76.30;;;;;;5079752;28;20203;-84
2023/07/20 03:55:17;;;;;;;2.53;0.80;;;18.00;76.40;;;;;;5084389;28;20746;-83
2023/07/20 03:57:50;;;;;;;2.45;0.88;;;18.10;77.10;;;;;;5089682;28;20583;-84
2023/07/20 04:00:20;;;;;;;2.72;0.70;;;18.10;76.20;;;;;;5112028;28;20277;-84
2023/07/20 04:02:52;;;;;;;0.70;0.50;;;18.10;76.40;;;;;;5092311;28;20210;-84
2023/07/20 04:05:25;;;;;;;3.53;0.60;;;18.20;76.10;;;;;;5092844;28;20205;-85
2023/07/20 04:07:57;;;;;;;1.65;0.70;;;18.20;75.60;;;;;;5086449;28;20230;-84
2023/07/20 04:10:29;;;;;;;1.55;0.60;;;18.20;76.00;;;;;;5105472;28;20708;-84
2023/07/20 04:13:00;;;;;;;2.17;0.52;;;18.20;75.30;;;;;;5113312;28;20199;-84
2023/07/20 04:15:31;;;;;;;2.03;0.70;;;18.10;76.00;;;;;;5103581;28;20204;-83
2023/07/20 04:18:02;;;;;;;2.00;0.50;;;18.20;76.20;;;;;;5110284;28;20241;-84
2023/07/20 04:20:35;;;;;;;1.02;0.55;;;18.10;75.40;;;;;;5099379;28;20199;-86
2023/07/20 04:23:06;;;;;;;5.97;0.75;;;18.20;75.30;;;;;;5082686;28;20187;-84
2023/07/20 04:25:40;;;;;;;1.40;0.70;;;18.20;74.70;;;;;;5085847;28;20188;-85
2023/07/20 04:28:12;;;;;;;1.10;0.55;;;18.20;73.90;;;;;;5085729;28;20217;-81
2023/07/20 04:30:43;;;;;;;1.30;0.60;;;18.10;74.80;;;;;;5083190;28;21794;-83
2023/07/20 04:33:14;;;;;;;2.67;0.60;;;18.20;74.50;;;;;;5084649;27;20188;-85
2023/07/20 04:35:57;;;;;;;2.08;0.60;;;18.20;74.70;;;;;;5072500;28;20776;-86
2023/07/20 04:38:28;;;;;;;2.15;0.55;;;18.10;74.70;;;;;;5090767;28;20194;-86
2023/07/20 04:40:59;;;;;;;4.97;0.80;;;18.10;75.70;;;;;;5081559;28;20220;-86
2023/07/20 04:43:32;;;;;;;4.53;0.68;;;18.20;75.70;;;;;;5074734;28;20199;-85
2023/07/20 04:46:03;;;;;;;5.10;0.77;;;18.10;74.40;;;;;;5093391;28;20183;-87
2023/07/20 04:48:34;;;;;;;2.42;0.57;;;18.10;74.80;;;;;;5094218;28;20242;-86
2023/07/20 04:51:08;;;;;;;1.85;0.57;;;18.10;74.40;;;;;;5090016;28;20298;-85
2023/07/20 04:53:39;;;;;;;1.52;0.80;;;18.10;75.30;;;;;;5072555;28;20184;-86
2023/07/20 04:56:10;;;;;;;4.70;0.85;;;18.10;75.30;;;;;;5092514;28;20195;-86
2023/07/20 04:58:41;;;;;;;2.35;0.50;;;18.10;76.10;;;;;;5083191;28;20211;-86
2023/07/20 05:01:13;;;;;;;2.60;0.60;;;18.10;76.00;;;;;;5092738;28;20195;-85
2023/07/20 05:03:44;;;;;;;1.25;0.57;;;18.10;76.30;;;;;;5073484;28;20188;-85
2023/07/20 05:06:17;;;;;;;1.35;0.50;;;18.00;76.80;;;;;;5073581;28;20195;-86
2023/07/20 05:08:48;;;;;;;2.60;0.80;;;18.10;76.20;;;;;;5072463;28;20218;-87
2023/07/20 05:11:19;;;;;;;1.98;0.52;;;18.10;76.30;;;;;;5082625;28;20569;-85
2023/07/20 05:13:50;;;;;;;2.90;0.50;;;18.10;75.10;;;;;;5073726;28;20200;-86
2023/07/20 05:16:23;;;;;;;1.85;0.50;;;18.20;74.80;;;;;;5072072;28;20215;-86
2023/07/20 05:18:57;;;;;;;2.70;0.70;;;18.20;75.20;;;;;;5073052;28;20190;-86
2023/07/20 05:21:30;;;;;;;2.60;0.50;;;18.20;73.70;;;;;;5071472;28;20200;-85
2023/07/20 05:24:01;;;;;;;0.75;0.50;;;18.20;73.60;;;;;;5087278;28;20199;-85
2023/07/20 05:26:32;;;;;;;3.78;0.63;;;18.20;73.60;;;;;;5079506;28;20196;-85
2023/07/20 05:29:06;;;;;;;0.93;0.40;;;18.20;74.30;;;;;;5071264;28;20216;-85
2023/07/20 05:31:38;;;;;;;3.45;1.10;;;18.30;73.80;;;;;;5071458;28;20200;-85
2023/07/20 05:34:09;;;;;;;2.78;0.60;;;18.30;73.00;;;;;;5071479;28;20196;-86
2023/07/20 05:36:45;;;;;;;1.48;0.60;;;18.40;72.40;;;;;;5074573;28;20618;-85
2023/07/20 05:39:16;;;;;;;1.90;0.60;;;18.50;71.90;;;;;;5080966;28;20199;-85
2023/07/20 05:41:48;;;;;;;2.35;0.50;;;18.60;71.00;;;;;;5071148;28;20203;-86
2023/07/20 05:44:19;;;;;;;1.40;0.50;;;18.60;71.10;;;;;;5089272;28;20180;-86
2023/07/20 05:46:50;;;;;;;0.85;0.47;;;18.60;69.90;;;;;;5089930;28;20199;-84
2023/07/20 05:49:24;;;;;;;1.95;0.80;;;18.60;69.80;;;;;;5088126;28;20288;-88
2023/07/20 05:52:00;;;;;;;2.00;0.50;;;18.60;70.20;;;;;;5072157;28;20207;-88
2023/07/20 05:54:31;;;;;;;3.03;0.70;;;18.80;70.30;;;;;;5071541;28;20243;-87
2023/07/20 05:57:03;;;;;;;6.15;0.80;;;18.80;70.10;;;;;;5092025;28;20203;-87
2023/07/20 05:59:34;;;;;;;2.42;0.75;;;18.80;69.80;;;;;;5091784;28;20199;-91
2023/07/20 06:02:05;;;;;;;1.15;0.50;;;18.90;70.00;;;;;;5091609;28;20569;-86
2023/07/20 06:04:37;;;;;;;1.35;0.60;;;18.90;68.30;;;;;;5078195;28;20234;-88
2023/07/20 06:07:10;;;;;;;0.73;0.52;;;18.90;67.40;;;;;;5077197;28;20196;-87
2023/07/20 06:09:41;;;;;;;1.83;0.50;;;18.90;67.90;;;;;;5072108;28;20196;-86
2023/07/20 06:12:13;;;;;;;1.30;0.52;;;19.00;67.10;;;;;;5082336;28;20309;-85
2023/07/20 06:14:44;;;;;;;1.25;0.40;;;19.10;67.30;;;;;;5084806;28;20205;-86
2023/07/20 06:17:15;;;;;;;1.33;0.60;;;19.10;66.90;;;;;;5092551;28;20250;-86
2023/07/20 06:19:46;;;;;;;0.98;0.47;;;19.20;67.20;;;;;;5072523;28;20223;-86
2023/07/20 06:22:19;;;;;;;1.02;0.50;;;19.20;66.00;;;;;;5091151;28;20191;-85
2023/07/20 06:24:50;;;;;;;2.47;0.50;;;19.30;66.70;;;;;;5091075;28;20250;-86
2023/07/20 06:27:21;;;;;;;0.47;0.40;;;19.40;66.10;;;;;;5090526;28;20191;-85
2023/07/20 06:29:52;;;;;;;1.15;0.47;;;19.50;65.90;;;;;;5084747;28;20376;-86
2023/07/20 06:32:23;;;;;;;2.08;0.43;;;19.60;66.20;;;;;;5070031;28;20202;-85
2023/07/20 06:34:56;;;;;;;0.73;0.32;;;19.50;65.60;;;;;;5076821;28;20266;-85
2023/07/20 06:37:30;;;;;;;2.17;0.70;;;19.30;65.40;;;;;;5090203;28;20203;-87
2023/07/20 06:40:01;;;;;;;0.60;0.50;;;19.30;66.00;;;;;;5090720;28;20202;-87
2023/07/20 06:42:33;;;;;;;1.73;0.60;;;19.10;66.10;;;;;;5089355;28;20219;-87
2023/07/20 06:45:05;;;;;;;0.57;0.40;;;19.10;67.00;;;;;;5100132;28;20184;-86
2023/07/20 06:47:37;;;;;;;1.20;0.50;;;19.00;66.40;;;;;;5082331;28;20311;-87
2023/07/20 06:50:08;;;;;;;1.58;0.60;;;18.80;67.00;;;;;;5084144;28;20554;-86
2023/07/20 06:52:41;;;;;;;0.85;0.50;;;18.70;68.50;;;;;;5091153;28;20678;-86
2023/07/20 06:55:13;;;;;;;0.85;0.50;;;18.60;67.80;;;;;;5077333;28;20232;-87
2023/07/20 06:57:45;;;;;;;1.65;0.50;;;18.50;68.40;;;;;;5070031;28;20200;-86
2023/07/20 07:00:17;;;;;;;0.63;0.47;;;18.40;68.80;;;;;;5094714;28;20203;-86
2023/07/20 07:02:48;;;;;;;1.38;0.40;;;18.30;69.10;;;;;;5090444;28;20192;-87
2023/07/20 07:05:19;;;;;;;1.25;0.40;;;18.20;69.10;;;;;;5070402;28;20569;-86
2023/07/20 07:07:53;;;;;;;1.30;0.60;;;18.10;69.20;;;;;;5070389;28;20224;-87
2023/07/20 07:10:24;;;;;;;0.95;0.50;;;18.00;69.70;;;;;;5070927;28;20200;-87
2023/07/20 07:12:55;;;;;;;0.90;0.50;;;17.90;71.90;;;;;;5071901;28;20210;-85
2023/07/20 07:15:27;;;;;;;1.60;0.47;;;17.80;73.20;;;;;;5077337;28;20380;-86
2023/07/20 07:17:59;;;;;;;1.58;0.60;;;17.70;74.30;;;;;;5093715;28;20210;-85
2023/07/20 07:20:40;;;;;;;;;;;;;;;;;;;;;
2023/07/20 07:23:16;;;;;;;1.00;0.50;;;17.60;75.70;;;;;;5094103;28;20195;-87
2023/07/20 07:25:48;;;;;;;1.45;0.65;;;17.40;76.10;;;;;;5093941;28;20701;-87
2023/07/20 07:28:19;;;;;;;1.40;0.60;;;17.40;76.70;;;;;;5079901;28;20241;-87
2023/07/20 07:30:50;;;;;;;1.20;0.80;;;17.30;77.80;;;;;;5099340;28;20567;-86
2023/07/20 07:33:21;;;;;;;1.60;0.73;;;17.20;77.10;;;;;;5114243;28;20198;-85
2023/07/20 07:35:53;;;;;;;2.30;0.82;;;17.10;78.10;;;;;;5114640;27;20198;-86
2023/07/20 07:38:26;;;;;;;1.50;0.60;;;17.10;80.30;;;;;;5114700;28;20664;-87
2023/07/20 07:40:58;;;;;;;1.02;0.60;;;17.00;82.50;;;;;;5097715;28;20191;-83
2023/07/20 07:43:29;;;;;;;2.15;0.70;;;17.00;84.90;;;;;;5073749;28;20215;-86
2023/07/20 07:46:00;;;;;;;1.50;0.52;;;16.90;85.30;;;;;;5078104;28;20211;-87
2023/07/20 07:48:32;;;;;;;2.38;0.80;;;16.80;86.90;;;;;;5076229;28;20596;-84
2023/07/20 07:51:03;;;;;;;0.88;0.70;;;16.80;88.60;;;;;;5075387;28;20188;-85
2023/07/20 07:53:36;;;;;;;3.38;0.80;;;16.70;90.20;;;;;;5076085;28;20274;-86
2023/07/20 07:56:10;;;;;;;1.95;0.80;;;16.70;91.10;;;;;;5089568;28;20192;-87
2023/07/20 07:58:41;;;;;;;1.05;0.75;;;16.60;91.80;;;;;;5076935;28;20198;-87
2023/07/20 08:01:12;;;;;;;3.17;1.70;;;16.60;92.50;;;;;;5073648;28;20199;-86
2023/07/20 08:03:45;;;;;;;2.85;1.70;;;16.50;93.20;;;;;;5074648;28;20204;-86
2023/07/20 08:06:16;;;;;;;2.30;1.55;;;16.50;94.30;;;;;;5072455;28;20199;-86
2023/07/20 08:08:50;;;;;;;2.95;1.55;;;16.40;95.30;;;;;;5073205;28;20230;-86
2023/07/20 08:11:21;;;;;;;3.35;1.58;;;16.40;96.30;;;;;;5087852;28;20190;-87
2023/07/20 08:13:53;;;;;;;2.10;1.52;;;16.30;96.80;;;;;;5093438;28;20195;-87
2023/07/20 08:16:25;;;;;;;3.75;1.80;;;16.30;97.80;;;;;;5091908;28;20200;-84
2023/07/20 08:18:56;;;;;;;3.92;1.50;;;16.30;97.70;;;;;;5088925;28;20282;-85
2023/07/20 08:21:27;;;;;;;1.90;1.23;;;16.20;97.80;;;;;;5072971;28;20200;-86
2023/07/20 08:24:00;;;;;;;2.22;1.20;;;16.20;97.30;;;;;;5073881;28;20686;-87
2023/07/20 08:26:31;;;;;;;2.55;1.20;;;16.20;97.80;;;;;;5074033;28;20216;-87
2023/07/20 08:29:04;;;;;;;2.03;1.33;;;16.10;98.40;;;;;;5088327;28;20229;-87
2023/07/20 08:31:35;;;;;;;2.17;1.45;;;16.10;99.10;;;;;;5092204;28;20202;-86
2023/07/20 08:34:06;;;;;;;2.20;1.40;;;16.10;99.70;;;;;;5075453;28;20195;-85
2023/07/20 08:36:37;;;;;;;3.47;1.80;;;16.00;99.70;;;;;;5073598;28;20192;-86
2023/07/20 08:39:13;;;;;;;2.97;1.40;;;16.00;99.90;;;;;;5075616;28;20192;-88
2023/07/20 08:41:46;;;;;;;4.25;1.60;;;16.00;99.90;;;;;;5076021;28;20222;-87
2023/07/20 08:44:17;;;;;;;6.43;1.70;;;16.00;99.90;;;;;;5072742;28;20202;-88
2023/07/20 08:46:49;;;;;;;3.78;1.50;;;15.90;99.90;;;;;;5074168;28;20207;-89
2023/07/20 08:49:21;;;;;;;3.97;1.30;;;15.90;99.90;;;;;;5075795;28;20224;-90
2023/07/20 08:51:54;;;;;;;3.90;1.60;;;15.90;99.90;;;;;;5073884;28;20202;-89
2023/07/20 08:54:32;;;;;;;4.28;1.65;;;15.90;99.90;;;;;;5072012;28;20235;-87
2023/07/20 08:57:09;;;;;;;4.18;1.60;;;15.90;99.90;;;;;;5072250;28;20195;-88
2023/07/20 08:59:41;;;;;;;2.58;1.40;;;15.90;99.90;;;;;;5071657;28;20196;-87
2023/07/20 09:02:14;;;;;;;4.15;2.00;;;15.80;99.90;;;;;;5071609;28;20203;-87
2023/07/20 09:04:46;;;;;;;4.20;1.80;;;15.80;99.90;;;;;;5078215;28;20203;-86
2023/07/20 09:07:18;;;;;;;4.43;1.70;;;15.80;99.90;;;;;;5092063;28;20199;-87
2023/07/20 09:09:51;;;;;;;3.17;1.88;;;15.80;99.90;;;;;;5089537;28;20310;-86
2023/07/20 09:12:23;;;;;;;3.95;1.77;;;15.70;99.90;;;;;;5071721;28;20196;-86
2023/07/20 09:14:54;;;;;;;5.70;2.08;;;15.70;99.90;;;;;;5071607;28;20282;-86
2023/07/20 09:17:29;;;;;;;6.00;2.00;;;15.70;99.90;;;;;;5071923;28;20222;-85
2023/07/20 09:20:01;;;;;;;4.72;2.10;;;15.70;99.90;;;;;;5089187;28;20197;-86
2023/07/20 09:22:34;;;;;;;6.85;3.70;;;15.70;99.90;;;;;;5091561;28;20837;-86
2023/07/20 09:25:10;;;;;;;10.43;4.00;;;15.60;99.90;;;;;;5079694;28;20208;-85
2023/07/20 09:27:42;;;;;;;6.13;3.90;;;15.60;99.90;;;;;;5076770;28;20685;-87
2023/07/20 09:30:15;;;;;;;8.23;4.07;;;15.60;99.90;;;;;;5091560;28;20692;-88
2023/07/20 09:32:46;;;;;;;9.60;5.00;;;15.50;99.90;;;;;;5091564;28;20391;-88
2023/07/20 09:35:18;;;;;;;6.75;4.60;;;15.50;99.90;;;;;;5090912;28;20199;-86
2023/07/20 09:37:55;;;;;;;7.50;3.45;;;15.50;99.90;;;;;;5090474;28;20589;-87
2023/07/20 09:40:28;;;;;;;4.93;2.65;;;15.40;99.90;;;;;;5091326;28;20202;-86
2023/07/20 09:43:04;;;;;;;7.20;2.90;;;15.30;99.90;;;;;;5090735;28;20661;-87
2023/07/20 09:45:38;;;;;;;6.05;2.60;;;15.30;99.90;;;;;;5090720;28;20206;-87
2023/07/20 09:48:09;;;;;;;7.82;3.53;;;15.20;99.90;;;;;;5089885;28;20195;-85
2023/07/20 09:50:44;;;;;;;6.72;3.95;;;15.20;99.90;;;;;;5090779;28;20215;-87
2023/07/20 09:53:17;;;;;;;17.17;12.23;;;15.10;99.90;;;;;;5090624;28;20194;-86
2023/07/20 09:55:51;;;;;;;29.33;22.25;;;15.00;99.90;;;;;;5091269;28;20206;-86
2023/07/20 09:58:28;;;;;;;14.63;9.98;;;14.90;99.90;;;;;;5092211;28;20564;-87
2023/07/20 10:01:02;;;;;;;23.75;16.55;;;14.90;99.90;;;;;;5090266;28;20580;-85
2023/07/20 10:03:34;;;;;;;21.75;17.83;;;14.90;99.90;;;;;;5091046;28;20714;-86
2023/07/20 10:06:11;;;;;;;23.33;17.63;;;14.90;99.90;;;;;;5074044;28;20552;-87
2023/07/20 10:08:43;;;;;;;20.27;15.50;;;14.80;99.90;;;;;;5070570;28;20222;-86
2023/07/20 10:11:19;;;;;;;22.83;18.05;;;14.70;99.90;;;;;;5070653;28;20203;-86
2023/07/20 10:13:57;;;;;;;31.45;23.42;;;14.70;99.90;;;;;;5070253;28;20195;-86
2023/07/20 10:16:32;;;;;;;40.53;32.28;;;14.60;99.90;;;;;;5077130;28;20278;-87
2023/07/20 10:19:09;;;;;;;39.30;30.35;;;14.50;99.90;;;;;;5078049;28;20639;-87
2023/07/20 10:21:49;;;;;;;16.10;12.32;;;14.50;99.90;;;;;;5070556;28;20199;-87
2023/07/20 10:24:21;;;;;;;6.75;3.03;;;14.40;99.90;;;;;;5091593;28;20214;-87
2023/07/20 10:26:54;;;;;;;4.45;2.30;;;14.40;99.90;;;;;;5091408;28;20195;-87
2023/07/20 10:29:27;;;;;;;5.20;3.00;;;14.40;99.90;;;;;;5091363;28;20223;-86
2023/07/20 10:31:59;;;;;;;3.75;2.20;;;14.40;99.90;;;;;;5083749;28;20201;-87
2023/07/20 10:34:30;;;;;;;2.78;2.10;;;14.40;99.90;;;;;;5071170;28;20194;-89
2023/07/20 10:37:01;;;;;;;5.30;3.10;;;14.40;99.90;;;;;;5072207;28;20202;-86
2023/07/20 10:39:36;;;;;;;5.95;3.67;;;14.40;99.90;;;;;;5107278;28;20201;-86
2023/07/20 10:42:12;;;;;;;5.68;3.40;;;14.40;99.90;;;;;;5111629;28;20213;-88
2023/07/20 10:44:43;;;;;;;4.63;3.03;;;14.40;99.90;;;;;;5111069;27;20206;-87
2023/07/20 10:47:15;;;;;;;4.57;2.97;;;14.50;99.90;;;;;;5110891;28;20194;-87
2023/07/20 10:50:05;;;;;;;7.07;5.20;;;14.50;99.90;;;;;;5082611;28;20226;-87
2023/07/20 10:52:42;;;;;;;9.50;5.05;;;14.50;99.90;;;;;;5076693;28;20196;-87
2023/07/20 10:55:17;;;;;;;10.10;4.35;;;14.40;99.90;;;;;;5085354;28;20693;-86
2023/07/20 10:58:11;;;;;;;6.75;4.32;;;14.40;99.90;;;;;;5087514;28;20241;-87
2023/07/20 11:01:02;;;;;;;8.63;4.82;;;14.30;99.90;;;;;;5077485;28;20282;-88
2023/07/20 11:03:36;;;;;;;5.18;3.35;;;14.20;99.90;;;;;;5085664;28;20195;-87
2023/07/20 11:06:40;;;;;;;6.85;3.45;;;14.20;99.90;;;;;;5094196;28;20195;-87
2023/07/20 11:09:16;;;;;;;7.63;3.92;;;14.20;99.90;;;;;;5089017;28;20235;-88
2023/07/20 11:11:50;;;;;;;6.70;3.92;;;14.10;99.90;;;;;;5073727;28;20210;-86
2023/07/20 11:14:31;;;;;;;7.65;3.95;;;14.10;99.90;;;;;;5073928;28;20214;-88
2023/07/20 11:17:15;;;;;;;6.50;4.03;;;14.00;99.90;;;;;;5084054;28;20244;-88
2023/07/20 11:19:46;;;;;;;5.97;3.97;;;14.00;99.90;;;;;;5074038;28;20986;-86
2023/07/20 11:22:20;;;;;;;7.88;4.18;;;14.00;99.90;;;;;;5082119;28;20191;-87
2023/07/20 11:24:58;;;;;;;8.10;4.30;;;14.00;99.90;;;;;;5093519;28;20704;-87
2023/07/20 11:27:29;;;;;;;7.53;4.18;;;13.90;99.90;;;;;;5090093;28;20199;-89
2023/07/20 11:30:03;;;;;;;9.50;3.55;;;14.00;99.90;;;;;;5091348;28;20219;-87
2023/07/20 11:32:34;;;;;;;7.90;4.00;;;13.90;99.90;;;;;;5073749;28;20196;-87
2023/07/20 11:35:05;;;;;;;5.28;3.78;;;13.90;99.90;;;;;;5078816;28;20187;-86
2023/07/20 11:37:36;;;;;;;5.05;3.67;;;13.90;99.90;;;;;;5093406;28;20203;-87
2023/07/20 11:40:06;;;;;;;6.53;4.15;;;13.80;99.90;;;;;;5091787;28;20195;-87
2023/07/20 11:42:38;;;;;;;6.07;3.90;;;13.80;99.90;;;;;;5092717;28;20199;-87
2023/07/20 11:45:12;;;;;;;4.78;3.33;;;13.80;99.90;;;;;;5093881;28;20214;-83
2023/07/20 11:47:45;;;;;;;6.10;3.75;;;13.80;99.90;;;;;;5091471;28;20294;-86
2023/07/20 11:50:14;;;;;;;5.85;4.18;;;13.80;99.90;;;;;;5088009;28;20682;-87
2023/07/20 11:52:45;;;;;;;7.28;5.07;;;13.80;99.90;;;;;;5079208;28;20281;-86
2023/07/20 11:55:17;;;;;;;5.68;4.28;;;13.70;99.90;;;;;;5078202;28;20236;-87
2023/07/20 11:58:05;;;;;;;6.75;3.75;;;13.70;99.90;;;;;;5078341;28;20200;-85
2023/07/20 12:00:39;;;;;;;5.22;3.42;;;13.70;99.90;;;;;;5072281;28;20204;-87
2023/07/20 12:03:12;;;;;;;7.97;3.70;;;13.70;99.90;;;;;;5074160;28;20593;-86
2023/07/20 12:05:45;;;;;;;5.63;3.90;;;13.70;99.90;;;;;;5087625;28;20539;-86
2023/07/20 12:08:16;;;;;;;7.43;3.75;;;13.70;99.90;;;;;;5096292;28;20300;-86
2023/07/20 12:10:48;;;;;;;6.03;3.72;;;13.70;99.90;;;;;;5096747;28;20227;-88
2023/07/20 12:13:22;;;;;;;7.47;3.83;;;13.60;99.90;;;;;;5106850;28;20664;-87
2023/07/20 12:16:15;;;;;;;5.85;3.55;;;13.50;99.90;;;;;;5122807;28;20300;-88
2023/07/20 12:18:53;;;;;;;5.88;3.58;;;13.60;99.90;;;;;;5086407;28;20204;-88
2023/07/20 12:21:34;;;;;;;4.32;3.25;;;13.50;99.90;;;;;;5082539;28;20195;-88
2023/07/20 12:24:13;;;;;;;6.05;3.17;;;13.60;99.90;;;;;;5090844;28;20199;-88
2023/07/20 12:26:49;;;;;;;8.43;3.58;;;13.60;99.90;;;;;;5092832;28;20206;-87
2023/07/20 12:29:24;;;;;;;6.60;3.80;;;13.60;99.90;;;;;;5101279;28;20226;-90
2023/07/20 12:32:02;;;;;;;6.13;3.58;;;13.70;99.90;;;;;;5104497;28;20226;-90
2023/07/20 12:34:38;;;;;;;4.63;3.42;;;13.70;99.90;;;;;;5106661;28;20193;-89
2023/07/20 12:40:02;;;;;;;7.18;3.88;;;13.60;99.90;;;;;;5103263;28;20175;-88
2023/07/20 12:42:41;;;;;;;7.63;4.03;;;13.50;99.90;;;;;;5103030;28;20199;-88
2023/07/20 12:45:22;;;;;;;7.75;4.10;;;13.60;99.90;;;;;;5097281;28;20284;-88
2023/07/20 12:48:07;;;;;;;8.63;3.80;;;13.50;99.90;;;;;;5084989;28;20200;-89
2023/07/20 12:50:47;;;;;;;10.82;3.80;;;13.40;99.90;;;;;;5087383;28;20227;-87
2023/07/20 12:53:33;;;;;;;7.03;3.50;;;13.40;99.90;;;;;;5104254;28;20869;-87
2023/07/20 12:56:11;;;;;;;7.95;3.65;;;13.30;99.90;;;;;;5104874;28;20289;-87
2023/07/20 12:58:49;;;;;;;6.40;3.17;;;13.40;99.90;;;;;;5100692;28;20282;-87
2023/07/20 13:01:21;;;;;;;8.30;3.85;;;13.30;99.90;;;;;;5084260;28;20199;-87
2023/07/20 13:03:55;;;;;;;11.52;3.45;;;13.20;99.90;;;;;;5121693;28;20186;-86
2023/07/20 13:06:34;;;;;;;7.20;3.55;;;13.30;99.90;;;;;;5120283;28;20258;-88
2023/07/20 13:09:16;;;;;;;5.75;3.40;;;13.30;99.90;;;;;;5110923;28;20199;-87
2023/07/20 13:11:51;;;;;;;4.15;2.85;;;13.30;99.90;;;;;;5103225;28;20196;-88
2023/07/20 13:14:29;;;;;;;6.30;3.17;;;13.30;99.90;;;;;;5089673;28;20192;-88
2023/07/20 13:17:01;;;;;;;3.88;2.70;;;13.30;99.90;;;;;;5091002;28;20248;-87
2023/07/20 13:19:38;;;;;;;3.13;2.53;;;13.30;99.90;;;;;;5091847;28;20219;-88
2023/07/20 13:22:28;;;;;;;4.55;2.85;;;13.40;99.90;;;;;;5102388;28;20266;-88
2023/07/20 13:24:59;;;;;;;3.08;2.47;;;13.50;99.90;;;;;;5090577;28;20260;-86